Flight Track Log - Related Links

Times and Time Zones

All times are in EDT time to prevent confusion due to time zone crossing. See the UAL3849 flight status page for this flight to view local times or setup timezone preferences in your user account.

Time Position Orientation Groundspeed Altitude Reporting Facility
EDT Latitude Longitude Course Direction KTS MPH feet Rate Location/Type
Fri 01:17:55 PM 42.0214 -87.9128 90° East 170 196 2,600  Level Chicago Center
Fri 01:18:54 PM 42.0333 -87.8167 80° East 241 277 4,700 2,158 Climbing Chicago TRACON
Fri 01:19:49 PM 42.0333 -87.7333 90° East 274 315 6,700 2,032 Climbing Chicago TRACON
Fri 01:22:03 PM 42.0408 -87.4925 88° East 308 354 11,100 1,949 Climbing Chicago Center
Fri 01:23:00 PM 42.1000 -87.0035 90° East  Level FlightAware Approximate
Fri 01:23:06 PM 42.0608 -87.3758 77° East 318 366 13,100  Level Chicago Center
Fri 01:24:08 PM 42.0825 -87.2522 77° East 335 386 13,800 1,065 Climbing Chicago Center
Fri 01:25:10 PM 42.1089 -87.0839 78° East 377 434 15,300 1,306 Climbing Chicago Center
Fri 01:26:12 PM 42.1169 -86.9381 86° East 388 447 16,500 1,161 Climbing Chicago Center
Fri 01:27:14 PM 42.1217 -86.7903 87° East 394 453 17,700 1,306 Climbing Chicago Center
Fri 01:28:16 PM 42.1281 -86.6256 87° East 407 468 19,200 1,355 Climbing Chicago Center
Fri 01:29:18 PM 42.1333 -86.4714 87° East 412 474 20,500 1,258 Climbing Chicago Center
Fri 01:30:20 PM 42.1386 -86.3139 87° East 419 482 21,800 1,104 Climbing Chicago Center
Fri 01:31:23 PM 42.1422 -86.1539 88° East 426 490 22,800 581 Climbing Chicago Center
Fri 01:32:24 PM 42.1397 -85.9678 91° East 441 507 23,000 98 Climbing Chicago Center
Fri 01:33:26 PM 42.1350 -85.7933 92° East 465 535 23,000  Level Chicago Center
Fri 01:34:28 PM 42.1300 -85.6158 92° East 476 548 23,000  Level Chicago Center
Fri 01:35:30 PM 42.1250 -85.4408 92° East 472 543 23,000  Level Chicago Center
Fri 01:35:58 PM 42.1242 -85.3375 91° East 474 545 23,000  Level Cleveland Center
Fri 01:36:57 PM 42.1167 -85.1633 93° East 474 545 23,000  Level Cleveland Center
Fri 01:37:58 PM 42.1133 -84.9839 91° East 474 545 23,000  Level Cleveland Center
Fri 01:38:58 PM 42.1072 -84.8097 93° East 474 545 23,000  Level Cleveland Center
Fri 01:39:58 PM 42.0992 -84.6303 93° East 474 545 23,000  Level Cleveland Center
Fri 01:40:58 PM 42.0928 -84.4478 93° East 480 552 23,000  Level Cleveland Center
Fri 01:41:58 PM 42.0872 -84.3047 93° East 480 552 23,000  Level Cleveland Center
Fri 01:42:57 PM 42.0747 -84.1081 95° East 480 552 23,000  Level Cleveland Center
Fri 01:43:58 PM 42.0675 -83.9286 93° East 480 552 23,000  Level Cleveland Center
Fri 01:44:58 PM 42.0581 -83.7519 94° East 480 552 23,000 -50 Level Cleveland Center
Fri 01:45:58 PM 42.0506 -83.5586 93° East 480 552 22,900 -600 Descending Cleveland Center
Fri 01:46:58 PM 42.0406 -83.3819 94° East 480 552 21,800 -1,300 Descending Cleveland Center
Fri 01:47:58 PM 42.0217 -83.2106 98° East 470 541 20,300 -1,400 Descending Cleveland Center
Fri 01:48:58 PM 42.0064 -83.0450 97° East 456 525 19,000 -1,450 Descending Cleveland Center
Fri 01:49:58 PM 41.9892 -82.8794 98° East 451 519 17,400 -1,850 Descending Cleveland Center
Fri 01:50:58 PM 41.9756 -82.7197 96° East 439 505 15,300 -2,100 Descending Cleveland Center
Fri 01:51:58 PM 41.9575 -82.5656 99° East 429 494 13,200 -2,025 Descending Cleveland Center
Fri 01:52:18 PM 41.9456 -82.5233 111° Southeast 414 476 12,600 -2,000 Descending Cleveland Center
Fri 01:52:58 PM 41.9181 -82.4250 111° Southeast 414 476 11,200 -1,967 Descending Cleveland Center
Fri 01:53:19 PM 41.9000 -82.3742 115° Southeast 397 457 10,600 -947 Descending Cleveland Center
Fri 01:54:14 PM 41.8644 -82.2589 112° Southeast 395 455 10,000 -364 Descending Cleveland Center
Fri 01:54:58 PM 41.8283 -82.1575 116° Southeast 394 453 10,000  Level Cleveland Center
Fri 01:55:27 PM 41.7933 -82.1206 142° Southeast 343 395 10,000 -300 Level Cleveland Center
Fri 01:55:58 PM 41.7667 -82.0864 136° Southeast 350 403 9,700 -1,273 Descending Cleveland Center
Fri 01:56:33 PM 41.7233 -82.0408 142° Southeast 274 315 8,600 -1,700 Descending Cleveland Center
Fri 01:56:58 PM 41.7008 -82.0125 137° Southeast 308 354 8,000 -1,418 Descending Cleveland Center
Fri 01:57:28 PM 41.6719 -81.9869 147° Southeast 275 316 7,300 -1,000 Descending Cleveland Center
Fri 01:57:58 PM 41.6453 -81.9475 132° Southeast 279 321 7,000 -300 Descending Cleveland Center
Fri 01:58:28 PM 41.6247 -81.9247 140° Southeast 222 255 7,000  Level Cleveland Center
Fri 01:58:58 PM 41.6003 -81.8939 137° Southeast 239 275 7,000  Level Cleveland Center
Fri 01:59:17 PM 41.5878 -81.8769 135° Southeast 215 247 7,000  Level Cleveland Center
Fri 01:59:58 PM 41.5803 -81.8156 99° East 215 247 7,000  Level Cleveland Center
Fri 02:00:18 PM 41.5825 -81.7822 85° East 266 306 7,000 -621 Level Cleveland Center
Fri 02:01:25 PM 41.6086 -81.6967 68° East 223 257 6,100 -992 Descending Cleveland Center
Fri 02:02:19 PM 41.6278 -81.6331 68° East 213 245 5,000 -730 Descending Cleveland Center
Fri 02:03:20 PM 41.5844 -81.6047 154° Southeast 172 198 4,700 -492 Descending Cleveland Center
Fri 02:04:21 PM 41.5486 -81.6347 212° Southwest 154 177 4,000 -448 Descending Cleveland Center
Fri 02:05:34 PM 41.5147 -81.6950 233° Southwest 160 184 3,700 -496 Descending Cleveland Center
Fri 02:06:22 PM 41.4914 -81.7281 227° Southwest 162 186 3,000 -835 Descending Cleveland Center
Fri 02:07:29 PM 41.4597 -81.7800 231° Southwest 150 173 2,100 -716 Descending Cleveland Center
Fri 02:08:36 PM 41.4342 -81.8156 226° Southwest 122 140 1,400 -627 Descending Cleveland Center

Login

Don't have an account? Register now (free) for customized features, flight alerts, and more!